Lechlade, United Kingdom
Current Conditions -  °F | °C
As of 1:58 PM on Wednesday 28 Jan 2015 (Local Time) from EGVA Reporting Station
Light Rain Light Rain  
Wind Chill: 35°   Ceiling: Unl
Heat Index: 44°   Visibility: 6mi
Dew Point: 30°   Wind: 23mph
Humidity: 59%   Direction: 300°WNW
Pressure: 29.59"   Gusts: 30mph
Location:  51.69°N, 1.69°W
Report Text: EGVA 281358Z AUTO 30020G26KT 9999 -RA FEW042 07/M01 A2959 RMK AO2 PK WND 28036/53 UPB1303E1323B1348E1350RAB1350DZB1323E1348 SLP026 P0000 T00661010 $
Loading
Personal Weather Stations






























Interactive Weather Map New forecast layout! Learn more

10-Day Weather Forecast

Advertisements
Track Severe Weather on mobile